Terminal Aerodrome Forecast
Issued by NWS Cleveland, OH

Home | Current Version | Previous Version | Graphics & Text | Print | Product List | Glossary On
Versions: 1 2 3 4 5 6 7 8 9 10 11 12 13 14 15 16 17
000
FTUS41 KCLE 190500
TAFERI
TAF
KERI 190520Z 1906/2006 35011G18KT P6SM VCSH SCT025 OVC035
      TEMPO 1906/1910 OVC025
     FM191000 33008KT P6SM OVC035
      TEMPO 1910/1914 OVC025
     FM191600 32008KT P6SM BKN035
     FM192000 28008KT P6SM SCT035
     FM192200 25008KT P6SM SCT250
     FM200300 20006KT P6SM BKN250=

USA.gov is the U.S. government's official web portal to all federal, state and local government web resources and services.